sensor_id;sensor_type;location;lat;lon;timestamp;temperature;humidity
13892;DHT22;7016;48.172;8.058;2024-03-23T00:54:38;11.90;99.90
13892;DHT22;7016;48.172;8.058;2024-03-23T00:57:25;12.00;99.90
13892;DHT22;7016;48.172;8.058;2024-03-23T01:00:11;12.00;99.90
13892;DHT22;7016;48.172;8.058;2024-03-23T01:02:58;12.20;99.90
13892;DHT22;7016;48.172;8.058;2024-03-23T01:05:44;12.20;99.90
13892;DHT22;7016;48.172;8.058;2024-03-23T01:08:30;12.60;99.90
13892;DHT22;7016;48.172;8.058;2024-03-23T01:11:16;12.70;99.90
13892;DHT22;7016;48.172;8.058;2024-03-23T01:14:03;12.80;99.90
13892;DHT22;7016;48.172;8.058;2024-03-23T01:16:49;13.00;99.90
13892;DHT22;7016;48.172;8.058;2024-03-23T01:19:35;13.10;99.90
13892;DHT22;7016;48.172;8.058;2024-03-23T01:22:22;13.20;99.90
13892;DHT22;7016;48.172;8.058;2024-03-23T01:25:08;13.30;99.90
13892;DHT22;7016;48.172;8.058;2024-03-23T01:27:54;13.50;99.90
13892;DHT22;7016;48.172;8.058;2024-03-23T01:30:40;13.60;99.90
13892;DHT22;7016;48.172;8.058;2024-03-23T01:33:26;13.70;99.90
13892;DHT22;7016;48.172;8.058;2024-03-23T01:36:12;13.70;99.90
13892;DHT22;7016;48.172;8.058;2024-03-23T01:38:59;13.80;99.90
13892;DHT22;7016;48.172;8.058;2024-03-23T01:41:45;14.00;99.90
13892;DHT22;7016;48.172;8.058;2024-03-23T01:44:31;14.00;99.90
13892;DHT22;7016;48.172;8.058;2024-03-23T01:47:17;14.10;99.90
13892;DHT22;7016;48.172;8.058;2024-03-23T01:50:04;14.10;99.90
13892;DHT22;7016;48.172;8.058;2024-03-23T01:52:50;14.20;99.90
13892;DHT22;7016;48.172;8.058;2024-03-23T01:55:37;14.20;99.90
13892;DHT22;7016;48.172;8.058;2024-03-23T01:58:25;14.30;99.90
13892;DHT22;7016;48.172;8.058;2024-03-23T02:01:11;14.30;99.90
13892;DHT22;7016;48.172;8.058;2024-03-23T02:03:57;14.30;99.90
13892;DHT22;7016;48.172;8.058;2024-03-23T02:06:44;14.30;99.90
13892;DHT22;7016;48.172;8.058;2024-03-23T02:09:30;14.40;99.90
13892;DHT22;7016;48.172;8.058;2024-03-23T02:12:18;14.40;99.90
13892;DHT22;7016;48.172;8.058;2024-03-23T02:15:04;14.50;99.90
13892;DHT22;7016;48.172;8.058;2024-03-23T02:17:50;14.40;99.90
13892;DHT22;7016;48.172;8.058;2024-03-23T02:20:37;14.50;99.90
13892;DHT22;7016;48.172;8.058;2024-03-23T02:23:23;14.50;99.90
13892;DHT22;7016;48.172;8.058;2024-03-23T02:26:10;14.50;99.90
13892;DHT22;7016;48.172;8.058;2024-03-23T02:28:56;14.50;99.90
13892;DHT22;7016;48.172;8.058;2024-03-23T02:31:42;14.50;99.90
13892;DHT22;7016;48.172;8.058;2024-03-23T02:34:29;14.50;99.90
13892;DHT22;7016;48.172;8.058;2024-03-23T02:40:01;14.40;99.90
13892;DHT22;7016;48.172;8.058;2024-03-23T02:42:48;14.40;99.90
13892;DHT22;7016;48.172;8.058;2024-03-23T02:45:34;14.40;99.90
13892;DHT22;7016;48.172;8.058;2024-03-23T02:48:20;14.40;99.90
13892;DHT22;7016;48.172;8.058;2024-03-23T02:51:06;14.30;99.90
13892;DHT22;7016;48.172;8.058;2024-03-23T02:53:52;14.30;99.90
13892;DHT22;7016;48.172;8.058;2024-03-23T02:56:38;14.40;99.90
13892;DHT22;7016;48.172;8.058;2024-03-23T02:59:24;14.30;99.90
13892;DHT22;7016;48.172;8.058;2024-03-23T03:02:12;14.30;99.90
13892;DHT22;7016;48.172;8.058;2024-03-23T03:04:59;14.40;99.90
13892;DHT22;7016;48.172;8.058;2024-03-23T03:07:45;14.30;99.90
13892;DHT22;7016;48.172;8.058;2024-03-23T03:10:31;14.30;99.90
13892;DHT22;7016;48.172;8.058;2024-03-23T03:13:20;14.30;99.90
13892;DHT22;7016;48.172;8.058;2024-03-23T03:16:10;14.30;99.90
13892;DHT22;7016;48.172;8.058;2024-03-23T03:18:56;14.20;99.90
13892;DHT22;7016;48.172;8.058;2024-03-23T03:21:43;14.20;99.90
13892;DHT22;7016;48.172;8.058;2024-03-23T03:24:29;14.30;99.90
13892;DHT22;7016;48.172;8.058;2024-03-23T03:27:15;14.30;99.90
13892;DHT22;7016;48.172;8.058;2024-03-23T03:30:01;14.30;99.90
13892;DHT22;7016;48.172;8.058;2024-03-23T03:32:49;14.30;99.90
13892;DHT22;7016;48.172;8.058;2024-03-23T03:35:35;12.70;99.90
13892;DHT22;7016;48.172;8.058;2024-03-23T03:38:23;14.40;99.90
13892;DHT22;7016;48.172;8.058;2024-03-23T03:41:09;14.40;99.90
13892;DHT22;7016;48.172;8.058;2024-03-23T03:43:55;14.40;99.90
13892;DHT22;7016;48.172;8.058;2024-03-23T03:46:42;14.50;99.90
13892;DHT22;7016;48.172;8.058;2024-03-23T03:49:28;14.40;99.90
13892;DHT22;7016;48.172;8.058;2024-03-23T03:52:14;14.40;99.90
13892;DHT22;7016;48.172;8.058;2024-03-23T03:55:12;14.30;99.90
13892;DHT22;7016;48.172;8.058;2024-03-23T03:57:59;14.20;99.90
13892;DHT22;7016;48.172;8.058;2024-03-23T04:00:45;14.30;99.90
13892;DHT22;7016;48.172;8.058;2024-03-23T04:03:31;14.30;99.90
13892;DHT22;7016;48.172;8.058;2024-03-23T04:06:20;14.30;99.90
13892;DHT22;7016;48.172;8.058;2024-03-23T04:09:07;14.30;99.90
13892;DHT22;7016;48.172;8.058;2024-03-23T04:11:53;14.20;99.90
13892;DHT22;7016;48.172;8.058;2024-03-23T04:14:39;14.10;99.90
13892;DHT22;7016;48.172;8.058;2024-03-23T04:17:26;14.20;99.90
13892;DHT22;7016;48.172;8.058;2024-03-23T04:20:17;14.20;99.90
13892;DHT22;7016;48.172;8.058;2024-03-23T04:23:03;14.10;99.90
13892;DHT22;7016;48.172;8.058;2024-03-23T04:25:49;14.10;99.90
13892;DHT22;7016;48.172;8.058;2024-03-23T04:28:37;14.10;99.90
13892;DHT22;7016;48.172;8.058;2024-03-23T04:31:24;14.20;99.90
13892;DHT22;7016;48.172;8.058;2024-03-23T04:34:10;14.10;99.90
13892;DHT22;7016;48.172;8.058;2024-03-23T04:36:56;14.00;99.90
13892;DHT22;7016;48.172;8.058;2024-03-23T04:39:42;14.00;99.90
13892;DHT22;7016;48.172;8.058;2024-03-23T04:42:28;14.10;99.90
13892;DHT22;7016;48.172;8.058;2024-03-23T04:45:15;14.10;99.90
13892;DHT22;7016;48.172;8.058;2024-03-23T04:48:01;14.10;99.90
13892;DHT22;7016;48.172;8.058;2024-03-23T04:50:47;14.10;99.90
13892;DHT22;7016;48.172;8.058;2024-03-23T04:53:33;14.20;99.90
13892;DHT22;7016;48.172;8.058;2024-03-23T04:56:20;13.90;99.90
13892;DHT22;7016;48.172;8.058;2024-03-23T04:59:06;14.00;99.90
13892;DHT22;7016;48.172;8.058;2024-03-23T05:01:52;13.90;99.90
13892;DHT22;7016;48.172;8.058;2024-03-23T05:04:39;13.70;99.90
13892;DHT22;7016;48.172;8.058;2024-03-23T05:07:26;13.40;99.90
13892;DHT22;7016;48.172;8.058;2024-03-23T05:10:12;13.40;99.90
13892;DHT22;7016;48.172;8.058;2024-03-23T05:12:59;13.20;99.90
13892;DHT22;7016;48.172;8.058;2024-03-23T05:15:52;13.20;99.90
13892;DHT22;7016;48.172;8.058;2024-03-23T05:18:38;13.20;99.90
13892;DHT22;7016;48.172;8.058;2024-03-23T05:21:24;13.10;99.90
13892;DHT22;7016;48.172;8.058;2024-03-23T05:24:10;13.00;99.90
13892;DHT22;7016;48.172;8.058;2024-03-23T05:26:57;13.00;99.90
13892;DHT22;7016;48.172;8.058;2024-03-23T05:29:45;12.90;99.90
13892;DHT22;7016;48.172;8.058;2024-03-23T05:32:31;12.80;99.90
13892;DHT22;7016;48.172;8.058;2024-03-23T05:35:17;12.50;99.90
13892;DHT22;7016;48.172;8.058;2024-03-23T05:38:04;12.80;99.90
13892;DHT22;7016;48.172;8.058;2024-03-23T05:40:57;12.80;99.90
13892;DHT22;7016;48.172;8.058;2024-03-23T05:43:44;12.80;99.90
13892;DHT22;7016;48.172;8.058;2024-03-23T05:46:30;13.70;99.90
13892;DHT22;7016;48.172;8.058;2024-03-23T05:49:17;12.60;99.90
13892;DHT22;7016;48.172;8.058;2024-03-23T05:52:04;12.70;99.90
13892;DHT22;7016;48.172;8.058;2024-03-23T05:54:50;12.50;99.90
13892;DHT22;7016;48.172;8.058;2024-03-23T05:57:36;12.50;99.90
13892;DHT22;7016;48.172;8.058;2024-03-23T06:00:23;12.40;99.90
13892;DHT22;7016;48.172;8.058;2024-03-23T06:03:12;12.20;99.90
13892;DHT22;7016;48.172;8.058;2024-03-23T06:05:58;12.00;99.90
13892;DHT22;7016;48.172;8.058;2024-03-23T06:08:44;12.00;99.90
13892;DHT22;7016;48.172;8.058;2024-03-23T06:11:30;12.00;99.90
13892;DHT22;7016;48.172;8.058;2024-03-23T06:14:16;12.20;99.90
13892;DHT22;7016;48.172;8.058;2024-03-23T06:17:03;11.70;99.90
13892;DHT22;7016;48.172;8.058;2024-03-23T06:19:49;11.70;99.90
13892;DHT22;7016;48.172;8.058;2024-03-23T06:22:35;11.40;99.90
13892;DHT22;7016;48.172;8.058;2024-03-23T06:25:21;11.30;99.90
13892;DHT22;7016;48.172;8.058;2024-03-23T06:28:07;11.50;99.90
13892;DHT22;7016;48.172;8.058;2024-03-23T06:30:54;11.40;99.90
13892;DHT22;7016;48.172;8.058;2024-03-23T06:33:40;11.40;99.90
13892;DHT22;7016;48.172;8.058;2024-03-23T06:36:29;11.40;99.90
13892;DHT22;7016;48.172;8.058;2024-03-23T06:39:17;11.50;99.90
13892;DHT22;7016;48.172;8.058;2024-03-23T06:42:04;11.50;99.90
13892;DHT22;7016;48.172;8.058;2024-03-23T06:44:50;11.30;99.90
13892;DHT22;7016;48.172;8.058;2024-03-23T06:47:37;11.50;99.90
13892;DHT22;7016;48.172;8.058;2024-03-23T06:50:23;11.50;99.90
13892;DHT22;7016;48.172;8.058;2024-03-23T06:53:09;11.40;99.90
13892;DHT22;7016;48.172;8.058;2024-03-23T06:55:55;11.20;99.90
13892;DHT22;7016;48.172;8.058;2024-03-23T06:58:41;11.20;99.90
13892;DHT22;7016;48.172;8.058;2024-03-23T07:01:28;11.10;99.90
13892;DHT22;7016;48.172;8.058;2024-03-23T07:04:17;11.20;99.90
13892;DHT22;7016;48.172;8.058;2024-03-23T07:07:04;11.40;99.90
13892;DHT22;7016;48.172;8.058;2024-03-23T07:09:50;11.40;99.90
13892;DHT22;7016;48.172;8.058;2024-03-23T07:12:38;11.40;99.90
13892;DHT22;7016;48.172;8.058;2024-03-23T07:15:25;11.40;99.90
13892;DHT22;7016;48.172;8.058;2024-03-23T07:18:11;11.10;99.90
13892;DHT22;7016;48.172;8.058;2024-03-23T07:20:57;11.00;99.90
13892;DHT22;7016;48.172;8.058;2024-03-23T07:23:44;11.10;99.90
13892;DHT22;7016;48.172;8.058;2024-03-23T07:26:32;10.90;99.90
13892;DHT22;7016;48.172;8.058;2024-03-23T07:29:19;10.90;99.90
13892;DHT22;7016;48.172;8.058;2024-03-23T07:32:05;10.70;99.90
13892;DHT22;7016;48.172;8.058;2024-03-23T07:34:51;10.60;99.90
13892;DHT22;7016;48.172;8.058;2024-03-23T07:37:37;10.90;99.90
13892;DHT22;7016;48.172;8.058;2024-03-23T07:40:23;10.80;99.90
13892;DHT22;7016;48.172;8.058;2024-03-23T07:43:09;10.50;99.90
13892;DHT22;7016;48.172;8.058;2024-03-23T07:45:56;10.60;99.90
13892;DHT22;7016;48.172;8.058;2024-03-23T07:48:42;10.60;99.90
13892;DHT22;7016;48.172;8.058;2024-03-23T07:51:28;10.60;99.90
13892;DHT22;7016;48.172;8.058;2024-03-23T07:54:15;10.90;99.90
13892;DHT22;7016;48.172;8.058;2024-03-23T07:57:01;10.30;99.90
13892;DHT22;7016;48.172;8.058;2024-03-23T07:59:47;10.30;99.90
13892;DHT22;7016;48.172;8.058;2024-03-23T08:02:33;10.20;99.90
13892;DHT22;7016;48.172;8.058;2024-03-23T08:05:20;10.40;99.90
13892;DHT22;7016;48.172;8.058;2024-03-23T08:08:07;10.10;99.90
13892;DHT22;7016;48.172;8.058;2024-03-23T08:10:53;10.10;99.90
13892;DHT22;7016;48.172;8.058;2024-03-23T08:13:41;10.10;99.90
13892;DHT22;7016;48.172;8.058;2024-03-23T08:16:27;10.10;99.90
13892;DHT22;7016;48.172;8.058;2024-03-23T08:19:14;10.00;99.90
13892;DHT22;7016;48.172;8.058;2024-03-23T08:22:00;9.70;99.90
13892;DHT22;7016;48.172;8.058;2024-03-23T08:24:48;9.60;99.90
13892;DHT22;7016;48.172;8.058;2024-03-23T08:27:34;9.80;99.90
13892;DHT22;7016;48.172;8.058;2024-03-23T08:30:20;9.90;99.90
13892;DHT22;7016;48.172;8.058;2024-03-23T08:33:06;10.20;99.90
13892;DHT22;7016;48.172;8.058;2024-03-23T08:35:59;10.20;99.90
13892;DHT22;7016;48.172;8.058;2024-03-23T08:38:46;10.20;99.90
13892;DHT22;7016;48.172;8.058;2024-03-23T08:41:32;10.30;99.90
13892;DHT22;7016;48.172;8.058;2024-03-23T08:44:18;10.00;99.90
13892;DHT22;7016;48.172;8.058;2024-03-23T08:47:04;10.40;99.90
13892;DHT22;7016;48.172;8.058;2024-03-23T08:49:53;10.40;99.90
13892;DHT22;7016;48.172;8.058;2024-03-23T08:52:39;10.40;99.90
13892;DHT22;7016;48.172;8.058;2024-03-23T08:57:52;9.80;99.90
13892;DHT22;7016;48.172;8.058;2024-03-23T09:00:38;9.80;99.90
13892;DHT22;7016;48.172;8.058;2024-03-23T09:03:25;10.10;99.90
13892;DHT22;7016;48.172;8.058;2024-03-23T09:06:14;10.00;99.90
13892;DHT22;7016;48.172;8.058;2024-03-23T09:09:00;10.00;99.90
13892;DHT22;7016;48.172;8.058;2024-03-23T09:11:46;9.90;99.90
13892;DHT22;7016;48.172;8.058;2024-03-23T09:14:34;10.20;99.90
13892;DHT22;7016;48.172;8.058;2024-03-23T09:17:20;10.20;99.90
13892;DHT22;7016;48.172;8.058;2024-03-23T09:20:06;10.20;99.90
13892;DHT22;7016;48.172;8.058;2024-03-23T09:22:53;10.40;99.90
13892;DHT22;7016;48.172;8.058;2024-03-23T09:25:39;10.60;99.90
13892;DHT22;7016;48.172;8.058;2024-03-23T09:28:25;10.30;99.90
13892;DHT22;7016;48.172;8.058;2024-03-23T09:31:11;10.10;99.90
13892;DHT22;7016;48.172;8.058;2024-03-23T09:34:00;10.30;99.90
13892;DHT22;7016;48.172;8.058;2024-03-23T09:36:47;10.30;99.90
13892;DHT22;7016;48.172;8.058;2024-03-23T09:39:33;10.20;99.90
13892;DHT22;7016;48.172;8.058;2024-03-23T09:42:19;10.10;99.90
13892;DHT22;7016;48.172;8.058;2024-03-23T09:45:26;10.20;99.90
13892;DHT22;7016;48.172;8.058;2024-03-23T09:48:13;10.40;99.90
13892;DHT22;7016;48.172;8.058;2024-03-23T09:51:00;10.50;99.90
13892;DHT22;7016;48.172;8.058;2024-03-23T09:53:50;10.70;99.90
13892;DHT22;7016;48.172;8.058;2024-03-23T09:56:36;10.80;99.90
13892;DHT22;7016;48.172;8.058;2024-03-23T09:59:23;10.80;99.90
13892;DHT22;7016;48.172;8.058;2024-03-23T10:02:09;10.80;99.90
13892;DHT22;7016;48.172;8.058;2024-03-23T10:04:56;10.80;99.90
13892;DHT22;7016;48.172;8.058;2024-03-23T10:07:43;10.40;99.90
13892;DHT22;7016;48.172;8.058;2024-03-23T10:10:29;10.30;99.90
13892;DHT22;7016;48.172;8.058;2024-03-23T10:13:24;10.50;99.90
13892;DHT22;7016;48.172;8.058;2024-03-23T10:16:10;10.30;99.90
13892;DHT22;7016;48.172;8.058;2024-03-23T10:18:57;10.40;99.90
13892;DHT22;7016;48.172;8.058;2024-03-23T10:21:52;10.40;99.90
13892;DHT22;7016;48.172;8.058;2024-03-23T10:24:39;10.60;99.90
13892;DHT22;7016;48.172;8.058;2024-03-23T10:27:25;10.60;99.90
13892;DHT22;7016;48.172;8.058;2024-03-23T10:30:13;10.70;99.90
13892;DHT22;7016;48.172;8.058;2024-03-23T10:33:09;10.70;99.90
13892;DHT22;7016;48.172;8.058;2024-03-23T10:35:56;10.80;99.90
13892;DHT22;7016;48.172;8.058;2024-03-23T10:38:44;10.70;99.90
13892;DHT22;7016;48.172;8.058;2024-03-23T10:41:32;10.50;99.90
13892;DHT22;7016;48.172;8.058;2024-03-23T10:44:19;10.40;99.90
13892;DHT22;7016;48.172;8.058;2024-03-23T10:47:06;9.50;99.90
13892;DHT22;7016;48.172;8.058;2024-03-23T10:49:52;9.40;99.90
13892;DHT22;7016;48.172;8.058;2024-03-23T10:52:38;9.40;99.90
13892;DHT22;7016;48.172;8.058;2024-03-23T10:55:25;9.40;99.90
13892;DHT22;7016;48.172;8.058;2024-03-23T10:58:11;9.20;99.90
13892;DHT22;7016;48.172;8.058;2024-03-23T11:00:58;9.10;99.90
13892;DHT22;7016;48.172;8.058;2024-03-23T11:03:46;9.20;99.90
13892;DHT22;7016;48.172;8.058;2024-03-23T11:06:36;9.30;99.90
13892;DHT22;7016;48.172;8.058;2024-03-23T11:15:11;8.90;99.90
13892;DHT22;7016;48.172;8.058;2024-03-23T11:18:07;8.30;99.90
13892;DHT22;7016;48.172;8.058;2024-03-23T11:20:54;8.20;99.90
13892;DHT22;7016;48.172;8.058;2024-03-23T11:23:41;8.00;99.90
13892;DHT22;7016;48.172;8.058;2024-03-23T11:26:27;8.10;99.90
13892;DHT22;7016;48.172;8.058;2024-03-23T11:29:15;8.30;99.90
13892;DHT22;7016;48.172;8.058;2024-03-23T11:32:02;8.40;99.90
13892;DHT22;7016;48.172;8.058;2024-03-23T11:34:50;8.40;99.90
13892;DHT22;7016;48.172;8.058;2024-03-23T11:37:37;8.40;99.90
13892;DHT22;7016;48.172;8.058;2024-03-23T11:40:23;8.40;99.90
13892;DHT22;7016;48.172;8.058;2024-03-23T11:43:14;8.30;99.90
13892;DHT22;7016;48.172;8.058;2024-03-23T11:46:01;8.10;99.90
13892;DHT22;7016;48.172;8.058;2024-03-23T11:48:50;8.30;99.90
13892;DHT22;7016;48.172;8.058;2024-03-23T11:51:37;8.50;99.90
13892;DHT22;7016;48.172;8.058;2024-03-23T11:54:27;8.50;99.90
13892;DHT22;7016;48.172;8.058;2024-03-23T11:57:13;8.70;99.90
13892;DHT22;7016;48.172;8.058;2024-03-23T11:59:59;8.70;99.90
13892;DHT22;7016;48.172;8.058;2024-03-23T12:02:45;8.80;99.90
13892;DHT22;7016;48.172;8.058;2024-03-23T12:05:32;9.00;99.90
13892;DHT22;7016;48.172;8.058;2024-03-23T12:08:30;9.40;99.90
13892;DHT22;7016;48.172;8.058;2024-03-23T12:11:17;9.50;99.90
13892;DHT22;7016;48.172;8.058;2024-03-23T12:14:04;9.60;99.90
13892;DHT22;7016;48.172;8.058;2024-03-23T12:16:50;9.40;99.90
13892;DHT22;7016;48.172;8.058;2024-03-23T12:19:36;9.40;99.90
13892;DHT22;7016;48.172;8.058;2024-03-23T12:22:23;9.20;99.90
13892;DHT22;7016;48.172;8.058;2024-03-23T12:25:10;9.20;99.90
13892;DHT22;7016;48.172;8.058;2024-03-23T12:28:00;9.30;99.90
13892;DHT22;7016;48.172;8.058;2024-03-23T12:30:47;9.40;99.90
13892;DHT22;7016;48.172;8.058;2024-03-23T12:33:33;9.00;99.90
13892;DHT22;7016;48.172;8.058;2024-03-23T12:36:19;9.10;99.90
13892;DHT22;7016;48.172;8.058;2024-03-23T12:39:05;9.30;99.90
13892;DHT22;7016;48.172;8.058;2024-03-23T12:41:51;9.50;99.90
13892;DHT22;7016;48.172;8.058;2024-03-23T12:44:38;9.50;99.90
13892;DHT22;7016;48.172;8.058;2024-03-23T12:47:24;9.50;99.90
13892;DHT22;7016;48.172;8.058;2024-03-23T12:50:11;9.60;99.90
13892;DHT22;7016;48.172;8.058;2024-03-23T12:52:57;9.50;99.90
13892;DHT22;7016;48.172;8.058;2024-03-23T12:55:43;9.70;99.90
13892;DHT22;7016;48.172;8.058;2024-03-23T12:58:29;9.70;99.90
13892;DHT22;7016;48.172;8.058;2024-03-23T13:01:16;9.70;99.90
13892;DHT22;7016;48.172;8.058;2024-03-23T13:04:02;9.60;99.90
13892;DHT22;7016;48.172;8.058;2024-03-23T13:06:48;9.70;99.90
13892;DHT22;7016;48.172;8.058;2024-03-23T13:09:34;9.60;99.90
13892;DHT22;7016;48.172;8.058;2024-03-23T13:12:20;9.80;99.90
13892;DHT22;7016;48.172;8.058;2024-03-23T13:15:07;9.80;99.90
13892;DHT22;7016;48.172;8.058;2024-03-23T13:17:53;9.70;99.90
13892;DHT22;7016;48.172;8.058;2024-03-23T13:20:40;9.80;99.90
13892;DHT22;7016;48.172;8.058;2024-03-23T13:23:26;10.00;99.90
13892;DHT22;7016;48.172;8.058;2024-03-23T13:26:12;10.10;99.90
13892;DHT22;7016;48.172;8.058;2024-03-23T13:28:58;9.90;99.90
13892;DHT22;7016;48.172;8.058;2024-03-23T13:31:45;9.80;99.90
13892;DHT22;7016;48.172;8.058;2024-03-23T13:34:31;9.80;99.90
13892;DHT22;7016;48.172;8.058;2024-03-23T13:37:19;9.80;99.90
13892;DHT22;7016;48.172;8.058;2024-03-23T13:40:06;9.70;99.90
13892;DHT22;7016;48.172;8.058;2024-03-23T13:42:53;9.80;99.90
13892;DHT22;7016;48.172;8.058;2024-03-23T13:45:39;9.80;99.90
13892;DHT22;7016;48.172;8.058;2024-03-23T13:48:27;10.00;99.90
13892;DHT22;7016;48.172;8.058;2024-03-23T13:51:13;10.00;99.90
13892;DHT22;7016;48.172;8.058;2024-03-23T13:53:59;9.70;99.90
13892;DHT22;7016;48.172;8.058;2024-03-23T13:56:49;9.90;99.90
13892;DHT22;7016;48.172;8.058;2024-03-23T13:59:36;9.60;99.90
13892;DHT22;7016;48.172;8.058;2024-03-23T14:02:23;9.70;99.90
13892;DHT22;7016;48.172;8.058;2024-03-23T14:05:10;9.60;99.90
13892;DHT22;7016;48.172;8.058;2024-03-23T14:07:57;9.80;99.90
13892;DHT22;7016;48.172;8.058;2024-03-23T14:10:43;9.80;99.90
13892;DHT22;7016;48.172;8.058;2024-03-23T14:13:29;9.90;99.90
13892;DHT22;7016;48.172;8.058;2024-03-23T14:16:16;9.70;99.90
13892;DHT22;7016;48.172;8.058;2024-03-23T14:19:02;10.00;99.90
13892;DHT22;7016;48.172;8.058;2024-03-23T14:21:50;9.90;99.90
13892;DHT22;7016;48.172;8.058;2024-03-23T14:24:37;9.90;99.90
13892;DHT22;7016;48.172;8.058;2024-03-23T14:27:23;10.00;99.90
13892;DHT22;7016;48.172;8.058;2024-03-23T14:30:09;10.00;99.90
13892;DHT22;7016;48.172;8.058;2024-03-23T14:32:58;11.10;99.90
13892;DHT22;7016;48.172;8.058;2024-03-23T14:35:56;10.00;99.90
13892;DHT22;7016;48.172;8.058;2024-03-23T14:38:47;9.90;99.90
13892;DHT22;7016;48.172;8.058;2024-03-23T14:41:33;9.80;99.90
13892;DHT22;7016;48.172;8.058;2024-03-23T14:44:19;9.90;99.90
13892;DHT22;7016;48.172;8.058;2024-03-23T14:47:05;9.90;99.90
13892;DHT22;7016;48.172;8.058;2024-03-23T14:49:51;9.80;99.90
13892;DHT22;7016;48.172;8.058;2024-03-23T14:52:38;9.90;99.90
13892;DHT22;7016;48.172;8.058;2024-03-23T14:55:24;9.90;99.90
13892;DHT22;7016;48.172;8.058;2024-03-23T14:58:10;9.60;99.90
13892;DHT22;7016;48.172;8.058;2024-03-23T15:01:07;9.70;99.90
13892;DHT22;7016;48.172;8.058;2024-03-23T15:03:56;9.90;99.90
13892;DHT22;7016;48.172;8.058;2024-03-23T15:06:42;10.00;99.90
13892;DHT22;7016;48.172;8.058;2024-03-23T15:09:28;9.90;99.90
13892;DHT22;7016;48.172;8.058;2024-03-23T15:12:14;9.70;99.90
13892;DHT22;7016;48.172;8.058;2024-03-23T15:15:01;9.50;99.90
13892;DHT22;7016;48.172;8.058;2024-03-23T15:17:47;9.80;99.90
13892;DHT22;7016;48.172;8.058;2024-03-23T15:20:33;9.70;99.90
13892;DHT22;7016;48.172;8.058;2024-03-23T15:23:22;9.80;99.90
13892;DHT22;7016;48.172;8.058;2024-03-23T15:26:08;9.70;99.90
13892;DHT22;7016;48.172;8.058;2024-03-23T15:28:54;9.40;99.90
13892;DHT22;7016;48.172;8.058;2024-03-23T15:31:43;9.30;99.90
13892;DHT22;7016;48.172;8.058;2024-03-23T15:34:31;9.20;99.90
13892;DHT22;7016;48.172;8.058;2024-03-23T15:37:17;8.50;99.90
13892;DHT22;7016;48.172;8.058;2024-03-23T15:40:04;8.50;99.90
13892;DHT22;7016;48.172;8.058;2024-03-23T15:42:50;8.50;99.90
13892;DHT22;7016;48.172;8.058;2024-03-23T15:45:36;8.50;99.90
13892;DHT22;7016;48.172;8.058;2024-03-23T15:48:23;8.50;99.90
13892;DHT22;7016;48.172;8.058;2024-03-23T15:51:10;8.40;99.90
13892;DHT22;7016;48.172;8.058;2024-03-23T15:53:56;8.60;99.90
13892;DHT22;7016;48.172;8.058;2024-03-23T15:56:43;8.70;99.90
13892;DHT22;7016;48.172;8.058;2024-03-23T15:59:29;8.70;99.90
13892;DHT22;7016;48.172;8.058;2024-03-23T16:02:15;8.80;99.90
13892;DHT22;7016;48.172;8.058;2024-03-23T16:05:01;8.70;99.90
13892;DHT22;7016;48.172;8.058;2024-03-23T16:07:49;8.20;99.90
13892;DHT22;7016;48.172;8.058;2024-03-23T16:10:35;8.00;99.90
13892;DHT22;7016;48.172;8.058;2024-03-23T16:13:22;7.80;99.90
13892;DHT22;7016;48.172;8.058;2024-03-23T16:16:08;7.80;99.90
13892;DHT22;7016;48.172;8.058;2024-03-23T16:18:55;7.60;99.90
13892;DHT22;7016;48.172;8.058;2024-03-23T16:21:41;7.40;99.90
13892;DHT22;7016;48.172;8.058;2024-03-23T16:24:28;7.60;99.90
13892;DHT22;7016;48.172;8.058;2024-03-23T16:27:14;7.90;99.90
13892;DHT22;7016;48.172;8.058;2024-03-23T16:30:00;7.80;99.90
13892;DHT22;7016;48.172;8.058;2024-03-23T16:32:47;8.00;99.90
13892;DHT22;7016;48.172;8.058;2024-03-23T16:35:33;8.20;99.90
13892;DHT22;7016;48.172;8.058;2024-03-23T16:38:20;8.30;99.90
13892;DHT22;7016;48.172;8.058;2024-03-23T16:41:07;8.40;99.90
13892;DHT22;7016;48.172;8.058;2024-03-23T16:43:53;8.40;99.90
13892;DHT22;7016;48.172;8.058;2024-03-23T16:46:39;8.30;99.90
13892;DHT22;7016;48.172;8.058;2024-03-23T16:49:27;8.10;99.90
13892;DHT22;7016;48.172;8.058;2024-03-23T16:52:14;8.20;99.90
13892;DHT22;7016;48.172;8.058;2024-03-23T16:55:00;8.10;99.90
13892;DHT22;7016;48.172;8.058;2024-03-23T16:57:46;8.30;99.90
13892;DHT22;7016;48.172;8.058;2024-03-23T17:00:33;8.30;99.90
13892;DHT22;7016;48.172;8.058;2024-03-23T17:03:20;8.20;99.90
13892;DHT22;7016;48.172;8.058;2024-03-23T17:06:06;8.10;99.90
13892;DHT22;7016;48.172;8.058;2024-03-23T17:08:53;7.90;99.90
13892;DHT22;7016;48.172;8.058;2024-03-23T17:11:40;7.80;99.90
13892;DHT22;7016;48.172;8.058;2024-03-23T17:14:28;8.00;99.90
13892;DHT22;7016;48.172;8.058;2024-03-23T17:17:14;8.10;99.90
13892;DHT22;7016;48.172;8.058;2024-03-23T17:20:01;8.10;99.90
13892;DHT22;7016;48.172;8.058;2024-03-23T17:22:55;8.10;99.90
13892;DHT22;7016;48.172;8.058;2024-03-23T17:25:42;8.00;99.90
13892;DHT22;7016;48.172;8.058;2024-03-23T17:28:28;8.10;99.90
13892;DHT22;7016;48.172;8.058;2024-03-23T17:31:17;8.20;99.90
13892;DHT22;7016;48.172;8.058;2024-03-23T17:34:03;8.30;99.90
13892;DHT22;7016;48.172;8.058;2024-03-23T17:36:50;8.20;99.90
13892;DHT22;7016;48.172;8.058;2024-03-23T17:39:38;8.10;99.90
13892;DHT22;7016;48.172;8.058;2024-03-23T17:42:27;8.10;99.90
13892;DHT22;7016;48.172;8.058;2024-03-23T17:45:14;8.00;99.90
13892;DHT22;7016;48.172;8.058;2024-03-23T17:48:00;7.70;99.90
13892;DHT22;7016;48.172;8.058;2024-03-23T17:50:46;7.70;99.90
13892;DHT22;7016;48.172;8.058;2024-03-23T17:53:39;7.60;99.90
13892;DHT22;7016;48.172;8.058;2024-03-23T17:56:25;7.70;99.90
13892;DHT22;7016;48.172;8.058;2024-03-23T17:59:11;7.80;99.90
13892;DHT22;7016;48.172;8.058;2024-03-23T18:01:58;7.80;99.90
13892;DHT22;7016;48.172;8.058;2024-03-23T18:04:44;7.80;99.90
13892;DHT22;7016;48.172;8.058;2024-03-23T18:07:31;7.70;99.90
13892;DHT22;7016;48.172;8.058;2024-03-23T18:10:17;7.60;99.90
13892;DHT22;7016;48.172;8.058;2024-03-23T18:13:03;7.70;99.90
13892;DHT22;7016;48.172;8.058;2024-03-23T18:15:56;7.80;99.90
13892;DHT22;7016;48.172;8.058;2024-03-23T18:18:45;7.70;99.90
13892;DHT22;7016;48.172;8.058;2024-03-23T18:21:31;7.70;99.90
13892;DHT22;7016;48.172;8.058;2024-03-23T18:24:17;7.70;99.90
13892;DHT22;7016;48.172;8.058;2024-03-23T18:27:04;7.50;99.90
13892;DHT22;7016;48.172;8.058;2024-03-23T18:29:50;7.50;99.90
13892;DHT22;7016;48.172;8.058;2024-03-23T18:32:37;7.60;99.90
13892;DHT22;7016;48.172;8.058;2024-03-23T18:35:25;7.60;99.90
13892;DHT22;7016;48.172;8.058;2024-03-23T18:38:11;7.50;99.90
13892;DHT22;7016;48.172;8.058;2024-03-23T18:40:58;7.30;99.90
13892;DHT22;7016;48.172;8.058;2024-03-23T18:43:50;7.20;99.90
13892;DHT22;7016;48.172;8.058;2024-03-23T18:46:36;7.20;99.90
13892;DHT22;7016;48.172;8.058;2024-03-23T18:49:23;7.20;99.90
13892;DHT22;7016;48.172;8.058;2024-03-23T18:52:09;7.20;99.90
13892;DHT22;7016;48.172;8.058;2024-03-23T18:54:55;7.20;99.90
13892;DHT22;7016;48.172;8.058;2024-03-23T18:57:42;6.80;99.90
13892;DHT22;7016;48.172;8.058;2024-03-23T19:00:30;6.80;99.90
13892;DHT22;7016;48.172;8.058;2024-03-23T19:03:16;6.70;99.90